Airfield :
LOGIN :

Register | Disclaimer

   EN    FR    IT 

 










Legend :    VFR   Marginal VFR   IFR   Intensive IFR   Very Intensive IFR
Visi :
Ceiling :
>= 8 km
>= 3000ft
5 to 8 km
1000 to 3000 ft
1500m to 5 km
500 to 1000 ft
800 to 1500m
200 to 500 ft
< 800m
< 200 ft
Symbols :   Thunderstorms  Fog  Heavy snow  Heavy precipitations  Wind > 20 kt
SIGMETs :     Misc.  Thunderstorms  Icing  Turbulence  Mountain Waves  Volcanic Ashes







- Airport Elevation : 616 ft
- IATA code : PUF
- Download approach charts


LFBP - Pau

CURRENT METAR :
  • 201500Z AUTO 17006KT 9999 -RA FEW016/// SCT024/// BKN030/// ///TCU 03/01 Q1002 TEMPO 2000 RA BKN005 OVC040

EXPIRED METARs :
  • 201430Z AUTO 18007KT 9999 -RA FEW018/// BKN036/// ///TCU 04/01 Q1002 TEMPO 2000 RA BKN005 OVC040
  • 201400Z AUTO 23005KT 9999 -RA FEW019 BKN036 04/00 Q1002 TEMPO 2000 RA BKN005 OVC040
  • 201330Z AUTO 18002KT 9999 -RA SCT017/// BKN033/// BKN040/// ///TCU 04/01 Q1002 TEMPO 2000 RA BKN005 OVC040
  • 201300Z AUTO 00000KT 9999 SCT018 BKN034 BKN068 04/01 Q1002 TEMPO 2000 RA BKN005 OVC040
  • 201230Z AUTO 14004KT 100V180 9999 SCT015/// BKN034/// BKN047/// ///TCU 05/01 Q1001 TEMPO 2000 RA BKN005 OVC040

TAF TAF LFBP
Valid from the 20 at 12:00 until the 21 at 12:00 UTC


201100Z 2012/2112 VRB02KT 9999 BKN030
PROB40
TEMPO 2012/2021 2000 RA BKN005 OVC040
BECMG 2021/2023 BKN060
BECMG 2103/2105 10006KT
PROB30
TEMPO 2103/2109 3000 BR
No reported NOTAMs for that airfield.



MET'MAP, your aeronautical weather chart ! - Copyright ORBIFLY December 2007 - Disclaimer

ORBIFLY MET'MAP TEAM :

Programming & Development : Alexandra Zaïnal
Concept & Development : Baudouin d'Aumeries
Co-Development & Prog : Marc-Olivier Méhu
Technical & hardware support : Manuel Goepfert

Contact : metmap@orbifly.com




SOURCES & CREDITS :

   NOAA